createdAt,value
2018-09-21T00:00:00.243Z,21.32
2018-09-21T00:02:28.260Z,21.30
2018-09-21T00:04:56.221Z,21.30
2018-09-21T00:07:24.773Z,21.30
2018-09-21T00:09:52.726Z,21.30
2018-09-21T00:12:21.008Z,21.33
2018-09-21T00:14:48.993Z,21.32
2018-09-21T00:17:17.171Z,21.33
2018-09-21T00:19:45.167Z,21.37
2018-09-21T00:22:13.176Z,21.34
2018-09-21T00:24:41.111Z,21.31
2018-09-21T00:27:09.129Z,21.20
2018-09-21T00:29:37.080Z,21.21
2018-09-21T00:32:05.480Z,21.12
2018-09-21T00:34:33.400Z,21.12
2018-09-21T00:37:01.393Z,21.08
2018-09-21T00:39:29.416Z,21.09
2018-09-21T00:41:57.393Z,21.05
2018-09-21T00:44:25.401Z,21.03
2018-09-21T00:46:53.457Z,20.99
2018-09-21T00:49:21.564Z,20.98
2018-09-21T00:51:49.621Z,20.96
2018-09-21T00:54:17.587Z,20.95
2018-09-21T00:56:45.621Z,20.95
2018-09-21T00:59:13.646Z,20.96
2018-09-21T01:01:41.636Z,20.93
2018-09-21T01:04:09.626Z,20.96
2018-09-21T01:06:37.596Z,20.96
2018-09-21T01:09:08.462Z,20.96
2018-09-21T01:11:36.810Z,20.91
2018-09-21T01:14:04.792Z,20.86
2018-09-21T01:16:32.763Z,20.85
2018-09-21T01:19:00.926Z,20.83
2018-09-21T01:21:28.932Z,20.88
2018-09-21T01:23:57.101Z,20.83
2018-09-21T01:26:25.067Z,20.82
2018-09-21T01:28:53.291Z,20.79
2018-09-21T01:31:21.360Z,20.79
2018-09-21T01:33:49.454Z,20.91
2018-09-21T01:36:17.496Z,20.86
2018-09-21T01:38:45.589Z,20.83
2018-09-21T01:41:13.536Z,20.87
2018-09-21T01:43:41.587Z,20.90
2018-09-21T01:46:09.619Z,20.82
2018-09-21T01:48:37.621Z,20.83
2018-09-21T01:51:05.647Z,20.88
2018-09-21T01:53:33.708Z,20.86
2018-09-21T01:56:01.723Z,20.87
2018-09-21T01:58:29.734Z,20.90
2018-09-21T02:00:57.876Z,20.89
2018-09-21T02:03:25.940Z,20.86
2018-09-21T02:05:53.979Z,20.86
2018-09-21T02:08:21.954Z,20.88
2018-09-21T02:10:50.332Z,20.92
2018-09-21T02:13:18.539Z,20.92
2018-09-21T02:15:46.760Z,20.94
2018-09-21T02:18:14.899Z,20.90
2018-09-21T02:20:42.885Z,20.92
2018-09-21T02:23:11.363Z,20.91
2018-09-21T02:25:39.384Z,20.94
2018-09-21T02:28:07.685Z,21.08
2018-09-21T02:30:35.722Z,21.12
2018-09-21T02:33:03.843Z,21.05
2018-09-21T02:35:32.063Z,21.12
2018-09-21T02:38:00.166Z,21.10
2018-09-21T02:40:28.141Z,21.13
2018-09-21T02:42:56.131Z,21.13
2018-09-21T02:45:24.092Z,21.17
2018-09-21T02:47:52.480Z,21.09
2018-09-21T02:50:20.605Z,21.05
2018-09-21T02:52:48.708Z,21.02
2018-09-21T02:55:16.694Z,21.03
2018-09-21T02:57:44.732Z,21.08
2018-09-21T03:00:12.704Z,21.00
2018-09-21T03:02:40.798Z,20.97
2018-09-21T03:05:08.887Z,21.14
2018-09-21T03:07:36.874Z,21.17
2018-09-21T03:10:04.894Z,21.10
2018-09-21T03:12:32.892Z,21.13
2018-09-21T03:15:00.936Z,21.12
2018-09-21T03:17:28.904Z,21.06
2018-09-21T03:19:56.900Z,21.11
2018-09-21T03:22:24.887Z,21.10
2018-09-21T03:24:52.918Z,21.10
2018-09-21T03:27:20.894Z,21.12
2018-09-21T03:29:48.851Z,21.12
2018-09-21T03:32:16.866Z,21.11
2018-09-21T03:34:44.856Z,21.19
2018-09-21T03:37:12.854Z,21.14
2018-09-21T03:39:40.937Z,21.15
2018-09-21T03:42:08.895Z,21.12
2018-09-21T03:44:36.886Z,21.12
2018-09-21T03:47:04.836Z,21.07
2018-09-21T03:49:32.946Z,21.03
2018-09-21T03:52:01.000Z,21.09
2018-09-21T03:54:29.019Z,21.10
2018-09-21T03:56:56.952Z,21.18
2018-09-21T03:59:24.923Z,21.26
2018-09-21T04:01:52.895Z,21.26
2018-09-21T04:04:20.894Z,21.27
2018-09-21T04:06:48.929Z,21.23
2018-09-21T04:09:17.040Z,21.29
2018-09-21T04:11:45.050Z,21.29
2018-09-21T04:14:13.233Z,21.35
2018-09-21T04:16:41.193Z,21.36
2018-09-21T04:19:09.302Z,21.33
2018-09-21T04:21:37.256Z,21.27
2018-09-21T04:24:05.327Z,21.28
2018-09-21T04:26:33.289Z,21.27
2018-09-21T04:29:01.594Z,21.31
2018-09-21T04:31:29.900Z,21.31
2018-09-21T04:33:58.140Z,21.26
2018-09-21T04:36:26.149Z,21.25
2018-09-21T04:38:54.274Z,21.26
2018-09-21T04:41:22.410Z,21.23
2018-09-21T04:43:50.584Z,21.23
2018-09-21T04:46:18.754Z,21.14
2018-09-21T04:48:46.724Z,21.12
2018-09-21T04:51:14.916Z,21.15
2018-09-21T04:53:43.066Z,21.15
2018-09-21T04:56:11.230Z,21.08
2018-09-21T04:58:39.427Z,21.12
2018-09-21T05:01:07.622Z,21.14
2018-09-21T05:03:35.877Z,21.14
2018-09-21T05:06:04.048Z,21.22
2018-09-21T05:08:32.536Z,21.27
2018-09-21T05:11:01.096Z,21.30
2018-09-21T05:13:29.185Z,21.34
2018-09-21T05:15:57.477Z,21.35
2018-09-21T05:18:25.837Z,21.41
2018-09-21T05:20:54.079Z,21.41
2018-09-21T05:23:22.221Z,21.49
2018-09-21T05:25:51.802Z,21.54
2018-09-21T05:28:20.001Z,21.64
2018-09-21T05:30:48.600Z,21.72
2018-09-21T05:33:16.741Z,21.78
2018-09-21T05:35:44.987Z,21.90
2018-09-21T05:38:13.080Z,21.90
2018-09-21T05:40:41.280Z,22.16
2018-09-21T05:43:09.595Z,22.38
2018-09-21T05:45:37.840Z,22.41
2018-09-21T05:48:06.161Z,22.34
2018-09-21T05:50:34.408Z,22.35
2018-09-21T05:53:02.544Z,22.41
2018-09-21T05:55:30.812Z,22.48
2018-09-21T05:57:58.979Z,22.49
2018-09-21T06:00:27.295Z,22.56
2018-09-21T06:02:55.527Z,22.65
2018-09-21T06:05:23.860Z,23.32
2018-09-21T06:07:52.014Z,23.53
2018-09-21T06:10:20.270Z,23.56
2018-09-21T06:12:48.442Z,23.50
2018-09-21T06:15:16.718Z,23.32
2018-09-21T06:17:44.868Z,23.13
2018-09-21T06:20:13.172Z,23.03
2018-09-21T06:22:45.152Z,22.92
2018-09-21T06:25:09.630Z,22.91
2018-09-21T06:27:37.817Z,22.90
2018-09-21T06:30:07.296Z,22.90
2018-09-21T06:32:35.604Z,22.85
2018-09-21T06:35:03.903Z,22.93
2018-09-21T06:37:32.218Z,23.06
2018-09-21T06:40:00.718Z,23.22
2018-09-21T06:42:28.895Z,23.09
2018-09-21T06:44:57.193Z,23.04
2018-09-21T06:47:25.522Z,23.02
2018-09-21T06:49:53.711Z,23.03
2018-09-21T06:52:21.871Z,22.99
2018-09-21T06:54:49.998Z,22.99
2018-09-21T06:57:18.778Z,23.00
2018-09-21T06:59:46.950Z,23.08
2018-09-21T07:02:15.307Z,23.08
2018-09-21T07:04:43.528Z,23.15
2018-09-21T07:07:11.771Z,23.15
2018-09-21T07:09:39.932Z,23.21
2018-09-21T07:12:08.171Z,23.32
2018-09-21T07:14:36.396Z,23.35
2018-09-21T07:17:04.700Z,23.44
2018-09-21T07:19:32.877Z,23.50
2018-09-21T07:22:01.096Z,23.59
2018-09-21T07:24:29.248Z,23.58
2018-09-21T07:26:57.559Z,23.68
2018-09-21T07:29:25.717Z,23.55
2018-09-21T07:31:53.968Z,23.56
2018-09-21T07:34:22.197Z,23.58
2018-09-21T07:36:50.756Z,23.72
2018-09-21T07:39:18.851Z,23.97
2018-09-21T07:41:47.310Z,24.34
2018-09-21T07:44:15.509Z,24.38
2018-09-21T07:46:43.670Z,24.32
2018-09-21T07:49:11.758Z,24.08
2018-09-21T07:51:40.050Z,23.85
2018-09-21T07:54:08.249Z,23.67
2018-09-21T07:56:36.461Z,23.62
2018-09-21T07:59:04.649Z,23.56
2018-09-21T08:01:32.929Z,23.47
2018-09-21T08:04:01.130Z,23.45
2018-09-21T08:06:29.330Z,23.51
2018-09-21T08:08:57.534Z,23.47
2018-09-21T08:11:25.850Z,23.49
2018-09-21T08:13:53.981Z,23.38
2018-09-21T08:16:22.129Z,23.35
2018-09-21T08:18:50.269Z,23.28
2018-09-21T08:21:18.457Z,23.37
2018-09-21T08:23:46.798Z,23.35
2018-09-21T08:26:15.082Z,23.22
2018-09-21T08:28:43.513Z,23.34
2018-09-21T08:31:11.667Z,23.44
2018-09-21T08:33:39.958Z,23.43
2018-09-21T08:36:08.079Z,23.55
2018-09-21T08:38:36.310Z,23.65
2018-09-21T08:41:04.470Z,23.55
2018-09-21T08:43:32.727Z,23.62
2018-09-21T08:46:00.879Z,23.81
2018-09-21T08:48:28.970Z,23.43
2018-09-21T08:50:57.031Z,23.38
2018-09-21T08:53:25.250Z,23.35
2018-09-21T08:55:53.390Z,23.39
2018-09-21T08:58:21.659Z,23.29
2018-09-21T09:00:49.791Z,23.34
2018-09-21T09:03:18.004Z,23.28
2018-09-21T09:05:53.047Z,23.40
2018-09-21T09:08:22.442Z,23.70
2018-09-21T09:10:50.742Z,23.58
2018-09-21T09:13:19.623Z,23.60
2018-09-21T09:15:48.323Z,23.93
2018-09-21T09:18:16.494Z,24.02
2018-09-21T09:20:44.593Z,23.72
2018-09-21T09:23:12.798Z,23.73
2018-09-21T09:25:40.874Z,23.57
2018-09-21T09:28:09.076Z,23.38
2018-09-21T09:30:37.281Z,23.38
2018-09-21T09:33:05.530Z,23.28
2018-09-21T09:35:33.551Z,23.23
2018-09-21T09:38:01.900Z,22.93
2018-09-21T09:40:30.021Z,22.92
2018-09-21T09:42:58.336Z,22.89
2018-09-21T09:45:26.491Z,22.31
2018-09-21T09:47:54.655Z,22.17
2018-09-21T09:50:22.759Z,21.68
2018-09-21T09:52:50.942Z,21.54
2018-09-21T09:55:19.139Z,21.42
2018-09-21T09:57:47.339Z,21.23
2018-09-21T10:00:19.939Z,21.17
2018-09-21T10:02:48.258Z,21.06
2018-09-21T10:05:16.441Z,21.02
2018-09-21T10:07:44.614Z,20.95
2018-09-21T10:10:12.746Z,20.06
2018-09-21T10:12:41.026Z,19.60
2018-09-21T10:15:09.426Z,19.24
2018-09-21T10:17:37.637Z,19.07
2018-09-21T10:20:05.858Z,18.71
2018-09-21T10:22:34.061Z,18.14
2018-09-21T10:25:02.259Z,17.36
2018-09-21T10:27:30.583Z,16.55
2018-09-21T10:29:58.658Z,15.79
2018-09-21T10:32:26.651Z,15.63
2018-09-21T10:34:54.790Z,15.54
2018-09-21T10:37:22.881Z,15.42
2018-09-21T10:39:51.012Z,15.42
2018-09-21T10:42:19.209Z,15.14
2018-09-21T10:44:47.403Z,15.27
2018-09-21T10:47:15.612Z,15.10
2018-09-21T10:49:43.768Z,15.14
2018-09-21T10:52:11.859Z,15.26
2018-09-21T10:54:40.108Z,15.33
2018-09-21T10:57:08.223Z,15.26
2018-09-21T10:59:36.492Z,15.33
2018-09-21T11:02:04.605Z,15.34
2018-09-21T11:04:32.842Z,15.28
2018-09-21T11:07:01.015Z,15.40
2018-09-21T11:09:29.291Z,15.52
2018-09-21T11:11:57.383Z,15.52
2018-09-21T11:14:25.532Z,15.62
2018-09-21T11:16:53.639Z,15.41
2018-09-21T11:19:21.825Z,15.30
2018-09-21T11:21:50.230Z,15.21
2018-09-21T11:24:18.532Z,14.78
2018-09-21T11:26:46.671Z,14.87
2018-09-21T11:29:14.863Z,15.00
2018-09-21T11:31:42.992Z,14.84
2018-09-21T11:34:11.192Z,15.04
2018-09-21T11:36:39.332Z,14.73
2018-09-21T11:39:09.091Z,15.01
2018-09-21T11:41:37.203Z,14.95
2018-09-21T11:44:05.445Z,14.95
2018-09-21T11:46:33.826Z,14.75
2018-09-21T11:49:02.043Z,14.92
2018-09-21T11:51:30.251Z,15.00
2018-09-21T11:53:58.405Z,14.68
2018-09-21T11:56:26.632Z,15.01
2018-09-21T11:58:54.823Z,15.11
2018-09-21T12:01:22.943Z,15.03
2018-09-21T12:03:51.284Z,14.95
2018-09-21T12:06:19.452Z,14.77
2018-09-21T12:08:48.298Z,14.94
2018-09-21T12:11:16.444Z,15.21
2018-09-21T12:13:44.632Z,15.26
2018-09-21T12:16:12.808Z,15.35
2018-09-21T12:18:41.812Z,15.34
2018-09-21T12:21:09.979Z,15.27
2018-09-21T12:23:38.146Z,15.37
2018-09-21T12:26:06.424Z,15.55
2018-09-21T12:28:34.552Z,15.63
2018-09-21T12:31:02.748Z,15.43
2018-09-21T12:33:30.863Z,15.36
2018-09-21T12:35:59.068Z,15.25
2018-09-21T12:38:27.221Z,15.13
2018-09-21T12:40:56.292Z,15.36
2018-09-21T12:43:24.292Z,15.23
2018-09-21T12:45:52.500Z,15.09
2018-09-21T12:48:20.644Z,15.24
2018-09-21T12:50:48.829Z,15.30
2018-09-21T12:53:16.938Z,15.54
2018-09-21T12:55:49.513Z,15.27
2018-09-21T12:58:17.803Z,15.37
2018-09-21T13:00:51.692Z,15.42
2018-09-21T13:03:20.832Z,15.51
2018-09-21T13:05:53.405Z,15.43
2018-09-21T13:08:22.512Z,15.55
2018-09-21T13:10:50.804Z,15.58
2018-09-21T13:13:18.912Z,15.74
2018-09-21T13:15:47.143Z,15.91
2018-09-21T13:18:16.012Z,15.53
2018-09-21T13:20:44.293Z,15.65
2018-09-21T13:23:12.372Z,15.71
2018-09-21T13:25:40.611Z,15.71
2018-09-21T13:28:08.792Z,15.82
2018-09-21T13:30:36.924Z,15.86
2018-09-21T13:33:05.183Z,15.74
2018-09-21T13:35:33.440Z,15.54
2018-09-21T13:38:01.612Z,15.51
2018-09-21T13:40:29.831Z,15.73
2018-09-21T13:42:58.012Z,15.81
2018-09-21T13:45:26.212Z,15.82
2018-09-21T13:47:54.967Z,15.98
2018-09-21T13:50:23.552Z,16.23
2018-09-21T13:52:51.672Z,16.40
2018-09-21T13:55:19.872Z,16.58
2018-09-21T13:57:47.883Z,16.73
2018-09-21T14:00:16.275Z,16.75
2018-09-21T14:02:44.372Z,16.74
2018-09-21T14:05:12.792Z,16.64
2018-09-21T14:07:41.692Z,16.80
2018-09-21T14:10:10.472Z,16.63
2018-09-21T14:12:38.923Z,16.62
2018-09-21T14:15:07.212Z,16.49
2018-09-21T14:17:35.373Z,16.46
2018-09-21T14:20:03.632Z,16.47
2018-09-21T14:22:31.823Z,16.52
2018-09-21T14:25:00.000Z,16.29
2018-09-21T14:27:28.092Z,16.37
2018-09-21T14:29:56.132Z,16.41
2018-09-21T14:32:24.331Z,16.27
2018-09-21T14:34:52.431Z,16.47
2018-09-21T14:37:20.604Z,16.35
2018-09-21T14:39:48.732Z,16.41
2018-09-21T14:42:16.852Z,16.53
2018-09-21T14:44:44.884Z,16.58
2018-09-21T14:47:13.213Z,16.55
2018-09-21T14:49:41.382Z,16.53
2018-09-21T14:52:09.595Z,16.74
2018-09-21T14:54:37.752Z,16.86
2018-09-21T14:57:05.926Z,17.04
2018-09-21T14:59:33.953Z,17.16
2018-09-21T15:02:02.164Z,16.85
2018-09-21T15:04:30.212Z,16.87
2018-09-21T15:06:58.624Z,17.01
2018-09-21T15:09:26.752Z,17.09
2018-09-21T15:11:54.972Z,17.28
2018-09-21T15:14:23.124Z,17.31
2018-09-21T15:16:51.312Z,17.32
2018-09-21T15:19:19.368Z,17.38
2018-09-21T15:21:47.594Z,17.00
2018-09-21T15:24:15.732Z,16.99
2018-09-21T15:26:43.992Z,16.91
2018-09-21T15:29:12.112Z,16.71
2018-09-21T15:31:40.284Z,16.69
2018-09-21T15:34:08.572Z,16.65
2018-09-21T15:36:36.872Z,16.74
2018-09-21T15:39:08.012Z,16.68
2018-09-21T15:41:35.994Z,16.52
2018-09-21T15:44:03.958Z,16.60
2018-09-21T15:46:32.038Z,16.58
2018-09-21T15:49:00.088Z,16.52
2018-09-21T15:51:28.088Z,16.47
2018-09-21T15:53:56.061Z,16.41
2018-09-21T15:56:24.027Z,16.55
2018-09-21T15:58:52.097Z,16.50
2018-09-21T16:01:20.097Z,16.40
2018-09-21T16:03:49.216Z,16.13
2018-09-21T16:06:17.691Z,16.10
2018-09-21T16:08:46.088Z,16.16
2018-09-21T16:11:14.327Z,16.18
2018-09-21T16:13:42.211Z,16.12
2018-09-21T16:16:10.276Z,16.14
2018-09-21T16:18:38.284Z,16.13
2018-09-21T16:21:06.372Z,16.02
2018-09-21T16:23:34.480Z,15.95
2018-09-21T16:26:02.625Z,15.85
2018-09-21T16:28:30.793Z,15.88
2018-09-21T16:30:58.718Z,15.79
2018-09-21T16:33:26.942Z,15.76
2018-09-21T16:35:54.960Z,15.70
2018-09-21T16:38:23.003Z,15.63
2018-09-21T16:40:50.985Z,15.64
2018-09-21T16:43:19.178Z,15.58
2018-09-21T16:45:47.223Z,15.52
2018-09-21T16:48:15.235Z,15.51
2018-09-21T16:50:43.244Z,15.45
2018-09-21T16:53:11.220Z,15.37
2018-09-21T16:55:39.473Z,15.31
2018-09-21T16:58:07.523Z,15.30
2018-09-21T17:00:35.552Z,15.22
2018-09-21T17:03:03.646Z,15.19
2018-09-21T17:05:31.673Z,15.13
2018-09-21T17:07:59.766Z,15.05
2018-09-21T17:10:27.782Z,15.07
2018-09-21T17:12:55.855Z,14.98
2018-09-21T17:15:23.754Z,14.92
2018-09-21T17:17:52.011Z,14.90
2018-09-21T17:20:20.002Z,14.80
2018-09-21T17:22:47.992Z,14.74
2018-09-21T17:25:15.992Z,14.67
2018-09-21T17:27:43.971Z,14.61
2018-09-21T17:30:12.197Z,14.54
2018-09-21T17:32:40.406Z,14.50
2018-09-21T17:35:08.252Z,14.43
2018-09-21T17:37:36.342Z,14.40
2018-09-21T17:40:04.333Z,14.39
2018-09-21T17:42:32.507Z,14.36
2018-09-21T17:45:00.533Z,14.32
2018-09-21T17:47:28.526Z,14.30
2018-09-21T17:49:56.577Z,14.29
2018-09-21T17:52:24.588Z,14.24
2018-09-21T17:54:52.648Z,14.19
2018-09-21T17:57:20.674Z,14.24
2018-09-21T17:59:48.832Z,14.28
2018-09-21T18:02:17.053Z,14.21
2018-09-21T18:04:45.165Z,14.18
2018-09-21T18:07:21.883Z,14.10
2018-09-21T18:09:51.621Z,14.07
2018-09-21T18:12:19.954Z,14.05
2018-09-21T18:14:50.013Z,14.02
2018-09-21T18:17:18.181Z,14.03
2018-09-21T18:19:46.381Z,13.99
2018-09-21T18:22:14.356Z,13.98
2018-09-21T18:24:42.333Z,13.91
2018-09-21T18:27:10.812Z,13.89
2018-09-21T18:29:39.421Z,13.87
2018-09-21T18:32:07.905Z,13.87
2018-09-21T18:34:35.911Z,13.86
2018-09-21T18:37:03.909Z,13.87
2018-09-21T18:39:31.985Z,13.87
2018-09-21T18:41:59.988Z,13.87
2018-09-21T18:44:28.031Z,13.86
2018-09-21T18:46:56.064Z,13.80
2018-09-21T18:49:24.089Z,13.83
2018-09-21T18:51:52.123Z,13.79
2018-09-21T18:54:20.194Z,13.77
2018-09-21T18:56:48.468Z,13.75
2018-09-21T18:59:16.656Z,13.72
2018-09-21T19:01:44.765Z,13.66
2018-09-21T19:04:13.085Z,13.60
2018-09-21T19:06:41.226Z,13.55
2018-09-21T19:09:11.044Z,13.59
2018-09-21T19:11:39.325Z,13.64
2018-09-21T19:14:07.576Z,13.68
2018-09-21T19:16:35.722Z,13.75
2018-09-21T19:19:03.867Z,13.76
2018-09-21T19:21:31.836Z,13.86
2018-09-21T19:23:59.833Z,13.90
2018-09-21T19:26:28.195Z,13.91
2018-09-21T19:28:56.228Z,13.92
2018-09-21T19:31:24.250Z,13.95
2018-09-21T19:33:52.460Z,13.97
2018-09-21T19:36:20.828Z,13.95
2018-09-21T19:38:48.832Z,13.88
2018-09-21T19:41:16.821Z,13.74
2018-09-21T19:43:45.012Z,13.63
2018-09-21T19:46:13.101Z,13.44
2018-09-21T19:48:43.562Z,13.29
2018-09-21T19:51:14.353Z,13.16
2018-09-21T19:53:44.415Z,13.09
2018-09-21T19:56:13.837Z,12.94
2018-09-21T19:58:44.976Z,12.93
2018-09-21T20:01:13.294Z,12.83
2018-09-21T20:03:41.553Z,12.79
2018-09-21T20:06:09.741Z,12.81
2018-09-21T20:08:37.864Z,12.78
2018-09-21T20:11:06.257Z,12.77
2018-09-21T20:13:34.380Z,12.79
2018-09-21T20:16:02.557Z,12.55
2018-09-21T20:18:30.590Z,12.42
2018-09-21T20:20:58.631Z,12.27
2018-09-21T20:23:26.652Z,12.12
2018-09-21T20:25:54.840Z,11.86
2018-09-21T20:28:23.065Z,11.69
2018-09-21T20:30:56.848Z,11.51
2018-09-21T20:33:28.388Z,11.31
2018-09-21T20:36:03.861Z,11.15
2018-09-21T20:38:34.576Z,11.07
2018-09-21T20:43:52.286Z,10.97
2018-09-21T20:46:24.051Z,11.01
2018-09-21T20:48:57.883Z,10.88
2018-09-21T20:51:34.236Z,10.80
2018-09-21T20:54:16.183Z,10.88
2018-09-21T20:57:26.187Z,10.91
2018-09-21T21:00:02.106Z,10.84
2018-09-21T21:02:33.874Z,10.75
2018-09-21T21:05:14.032Z,10.76
2018-09-21T21:07:47.062Z,10.59
2018-09-21T21:10:15.385Z,10.61
2018-09-21T21:12:47.397Z,10.59
2018-09-21T21:15:15.587Z,10.71
2018-09-21T21:17:45.892Z,10.67
2018-09-21T21:20:14.923Z,10.66
2018-09-21T21:22:43.168Z,10.71
2018-09-21T21:25:12.212Z,10.66
2018-09-21T21:27:41.329Z,10.56
2018-09-21T21:33:56.924Z,10.59
2018-09-21T21:36:24.976Z,10.52
2018-09-21T21:38:53.001Z,10.60
2018-09-21T21:41:20.980Z,10.54
2018-09-21T21:43:48.964Z,10.60
2018-09-21T21:46:17.029Z,10.67
2018-09-21T21:48:45.356Z,10.66
2018-09-21T21:51:13.552Z,10.81
2018-09-21T21:53:41.656Z,10.83
2018-09-21T21:56:09.727Z,10.85
2018-09-21T21:58:37.726Z,10.86
2018-09-21T22:01:12.221Z,10.84
2018-09-21T22:03:43.185Z,10.89
2018-09-21T22:06:11.301Z,10.88
2018-09-21T22:08:39.441Z,10.83
2018-09-21T22:12:11.815Z,10.72
2018-09-21T22:14:39.827Z,10.54
2018-09-21T22:17:08.212Z,10.53
2018-09-21T22:19:36.155Z,10.41
2018-09-21T22:22:04.287Z,10.52
2018-09-21T22:24:32.282Z,10.55
2018-09-21T22:27:00.413Z,10.67
2018-09-21T22:29:28.533Z,10.59
2018-09-21T22:31:56.539Z,10.66
2018-09-21T22:34:24.547Z,10.67
2018-09-21T22:36:55.475Z,10.66
2018-09-21T22:39:23.550Z,10.68
2018-09-21T22:41:51.894Z,10.76
2018-09-21T22:44:19.924Z,10.84
2018-09-21T22:46:47.941Z,10.96
2018-09-21T22:49:19.746Z,10.92
2018-09-21T22:51:47.930Z,10.89
2018-09-21T22:54:15.930Z,10.79
2018-09-21T22:56:44.185Z,10.65
2018-09-21T22:59:12.304Z,10.63
2018-09-21T23:01:40.342Z,10.59
2018-09-21T23:04:08.255Z,10.60
2018-09-21T23:06:38.235Z,10.57
2018-09-21T23:09:12.260Z,10.63
2018-09-21T23:11:42.340Z,10.67
2018-09-21T23:14:10.786Z,10.69
2018-09-21T23:16:40.461Z,10.70
2018-09-21T23:19:09.226Z,10.64
2018-09-21T23:21:37.781Z,10.63
2018-09-21T23:24:05.790Z,10.69
2018-09-21T23:26:34.451Z,10.71
2018-09-21T23:29:02.492Z,10.68
2018-09-21T23:31:30.561Z,10.66
2018-09-21T23:33:58.510Z,10.64
2018-09-21T23:36:26.603Z,10.67
2018-09-21T23:38:54.545Z,10.69
2018-09-21T23:41:22.652Z,10.71
2018-09-21T23:43:50.737Z,10.70
2018-09-21T23:46:19.053Z,10.65
2018-09-21T23:48:47.165Z,10.69
2018-09-21T23:51:15.545Z,10.68
2018-09-21T23:53:43.471Z,10.70
2018-09-21T23:56:11.450Z,10.68
2018-09-21T23:58:39.473Z,10.74
